sensor_id;sensor_type;location;lat;lon;timestamp;P1;durP1;ratioP1;P2;durP2;ratioP2
6987;SDS011;3534;49.960;8.018;2024-03-08T00:01:06;20.67;;;13.30;;
6987;SDS011;3534;49.960;8.018;2024-03-08T00:03:32;22.17;;;14.00;;
6987;SDS011;3534;49.960;8.018;2024-03-08T00:06:01;18.47;;;12.77;;
6987;SDS011;3534;49.960;8.018;2024-03-08T00:08:27;15.77;;;11.77;;
6987;SDS011;3534;49.960;8.018;2024-03-08T00:10:56;18.23;;;12.47;;
6987;SDS011;3534;49.960;8.018;2024-03-08T00:13:22;21.07;;;12.80;;
6987;SDS011;3534;49.960;8.018;2024-03-08T00:15:50;23.67;;;13.87;;
6987;SDS011;3534;49.960;8.018;2024-03-08T00:18:16;21.70;;;12.53;;
6987;SDS011;3534;49.960;8.018;2024-03-08T00:20:43;20.43;;;12.77;;
6987;SDS011;3534;49.960;8.018;2024-03-08T00:23:11;22.30;;;13.90;;
6987;SDS011;3534;49.960;8.018;2024-03-08T00:25:38;18.57;;;12.80;;
6987;SDS011;3534;49.960;8.018;2024-03-08T00:28:05;20.17;;;12.73;;
6987;SDS011;3534;49.960;8.018;2024-03-08T00:30:32;18.20;;;12.73;;
6987;SDS011;3534;49.960;8.018;2024-03-08T00:32:58;20.87;;;13.73;;
6987;SDS011;3534;49.960;8.018;2024-03-08T00:35:25;20.27;;;13.30;;
6987;SDS011;3534;49.960;8.018;2024-03-08T00:37:52;26.37;;;13.90;;
6987;SDS011;3534;49.960;8.018;2024-03-08T00:40:22;21.27;;;13.50;;
6987;SDS011;3534;49.960;8.018;2024-03-08T00:42:49;22.40;;;13.50;;
6987;SDS011;3534;49.960;8.018;2024-03-08T00:45:18;20.50;;;13.13;;
6987;SDS011;3534;49.960;8.018;2024-03-08T00:47:44;19.63;;;12.50;;
6987;SDS011;3534;49.960;8.018;2024-03-08T00:50:11;21.27;;;13.33;;
6987;SDS011;3534;49.960;8.018;2024-03-08T00:52:38;22.70;;;13.40;;
6987;SDS011;3534;49.960;8.018;2024-03-08T00:55:06;21.53;;;13.97;;
6987;SDS011;3534;49.960;8.018;2024-03-08T00:57:36;20.27;;;12.90;;
6987;SDS011;3534;49.960;8.018;2024-03-08T01:00:04;23.60;;;13.57;;
6987;SDS011;3534;49.960;8.018;2024-03-08T01:02:34;19.87;;;13.73;;
6987;SDS011;3534;49.960;8.018;2024-03-08T01:05:01;23.40;;;14.33;;
6987;SDS011;3534;49.960;8.018;2024-03-08T01:07:29;21.03;;;13.63;;
6987;SDS011;3534;49.960;8.018;2024-03-08T01:09:55;23.83;;;14.57;;
6987;SDS011;3534;49.960;8.018;2024-03-08T01:12:22;19.20;;;12.47;;
6987;SDS011;3534;49.960;8.018;2024-03-08T01:14:51;30.03;;;14.90;;
6987;SDS011;3534;49.960;8.018;2024-03-08T01:17:17;23.63;;;13.57;;
6987;SDS011;3534;49.960;8.018;2024-03-08T01:19:44;17.73;;;12.80;;
6987;SDS011;3534;49.960;8.018;2024-03-08T01:22:11;23.63;;;14.40;;
6987;SDS011;3534;49.960;8.018;2024-03-08T01:24:37;20.60;;;13.00;;
6987;SDS011;3534;49.960;8.018;2024-03-08T01:27:04;23.80;;;15.13;;
6987;SDS011;3534;49.960;8.018;2024-03-08T01:29:31;21.43;;;14.70;;
6987;SDS011;3534;49.960;8.018;2024-03-08T01:31:59;19.87;;;12.60;;
6987;SDS011;3534;49.960;8.018;2024-03-08T01:34:26;22.30;;;13.37;;
6987;SDS011;3534;49.960;8.018;2024-03-08T01:36:53;24.20;;;14.07;;
6987;SDS011;3534;49.960;8.018;2024-03-08T01:39:20;23.23;;;14.70;;
6987;SDS011;3534;49.960;8.018;2024-03-08T01:41:47;20.80;;;13.90;;
6987;SDS011;3534;49.960;8.018;2024-03-08T01:44:14;23.07;;;14.13;;
6987;SDS011;3534;49.960;8.018;2024-03-08T01:46:42;23.37;;;12.20;;
6987;SDS011;3534;49.960;8.018;2024-03-08T01:49:11;19.67;;;13.57;;
6987;SDS011;3534;49.960;8.018;2024-03-08T01:51:39;20.93;;;13.40;;
6987;SDS011;3534;49.960;8.018;2024-03-08T01:54:07;24.03;;;13.40;;
6987;SDS011;3534;49.960;8.018;2024-03-08T01:56:35;21.90;;;13.30;;
6987;SDS011;3534;49.960;8.018;2024-03-08T01:59:03;22.70;;;13.20;;
6987;SDS011;3534;49.960;8.018;2024-03-08T02:01:32;25.40;;;13.23;;
6987;SDS011;3534;49.960;8.018;2024-03-08T02:03:59;19.00;;;12.67;;
6987;SDS011;3534;49.960;8.018;2024-03-08T02:06:27;26.80;;;15.20;;
6987;SDS011;3534;49.960;8.018;2024-03-08T02:08:54;20.43;;;13.47;;
6987;SDS011;3534;49.960;8.018;2024-03-08T02:11:21;25.30;;;14.23;;
6987;SDS011;3534;49.960;8.018;2024-03-08T02:13:48;23.67;;;13.70;;
6987;SDS011;3534;49.960;8.018;2024-03-08T02:16:19;22.50;;;13.30;;
6987;SDS011;3534;49.960;8.018;2024-03-08T02:18:47;23.93;;;14.47;;
6987;SDS011;3534;49.960;8.018;2024-03-08T02:21:16;24.90;;;13.80;;
6987;SDS011;3534;49.960;8.018;2024-03-08T02:23:44;20.17;;;14.07;;
6987;SDS011;3534;49.960;8.018;2024-03-08T02:26:10;20.33;;;13.20;;
6987;SDS011;3534;49.960;8.018;2024-03-08T02:28:37;23.07;;;13.47;;
6987;SDS011;3534;49.960;8.018;2024-03-08T02:31:04;23.67;;;13.30;;
6987;SDS011;3534;49.960;8.018;2024-03-08T02:33:33;19.30;;;13.03;;
6987;SDS011;3534;49.960;8.018;2024-03-08T02:36:00;21.77;;;13.57;;
6987;SDS011;3534;49.960;8.018;2024-03-08T02:38:28;21.67;;;12.47;;
6987;SDS011;3534;49.960;8.018;2024-03-08T02:40:54;23.40;;;13.30;;
6987;SDS011;3534;49.960;8.018;2024-03-08T02:43:21;19.40;;;13.53;;
6987;SDS011;3534;49.960;8.018;2024-03-08T02:45:47;19.33;;;12.77;;
6987;SDS011;3534;49.960;8.018;2024-03-08T02:48:14;28.30;;;14.60;;
6987;SDS011;3534;49.960;8.018;2024-03-08T02:50:42;20.60;;;13.80;;
6987;SDS011;3534;49.960;8.018;2024-03-08T02:53:09;21.30;;;14.30;;
6987;SDS011;3534;49.960;8.018;2024-03-08T02:55:38;19.20;;;13.60;;
6987;SDS011;3534;49.960;8.018;2024-03-08T02:58:05;22.30;;;13.90;;
6987;SDS011;3534;49.960;8.018;2024-03-08T03:00:35;21.03;;;13.43;;
6987;SDS011;3534;49.960;8.018;2024-03-08T03:03:02;21.63;;;13.30;;
6987;SDS011;3534;49.960;8.018;2024-03-08T03:05:29;19.23;;;13.07;;
6987;SDS011;3534;49.960;8.018;2024-03-08T03:07:56;25.57;;;13.30;;
6987;SDS011;3534;49.960;8.018;2024-03-08T03:10:23;24.67;;;14.30;;
6987;SDS011;3534;49.960;8.018;2024-03-08T03:12:52;24.33;;;13.30;;
6987;SDS011;3534;49.960;8.018;2024-03-08T03:15:19;19.10;;;13.07;;
6987;SDS011;3534;49.960;8.018;2024-03-08T03:17:46;23.63;;;14.00;;
6987;SDS011;3534;49.960;8.018;2024-03-08T03:20:13;21.53;;;13.43;;
6987;SDS011;3534;49.960;8.018;2024-03-08T03:22:47;21.87;;;12.43;;
6987;SDS011;3534;49.960;8.018;2024-03-08T03:25:16;24.90;;;13.90;;
6987;SDS011;3534;49.960;8.018;2024-03-08T03:27:48;20.30;;;13.03;;
6987;SDS011;3534;49.960;8.018;2024-03-08T03:30:17;19.83;;;14.03;;
6987;SDS011;3534;49.960;8.018;2024-03-08T03:32:47;23.20;;;12.70;;
6987;SDS011;3534;49.960;8.018;2024-03-08T03:35:14;19.33;;;12.80;;
6987;SDS011;3534;49.960;8.018;2024-03-08T03:37:41;26.10;;;14.50;;
6987;SDS011;3534;49.960;8.018;2024-03-08T03:40:10;22.73;;;14.63;;
6987;SDS011;3534;49.960;8.018;2024-03-08T03:42:39;25.07;;;14.13;;
6987;SDS011;3534;49.960;8.018;2024-03-08T03:45:06;22.43;;;14.30;;
6987;SDS011;3534;49.960;8.018;2024-03-08T03:47:35;20.63;;;12.27;;
6987;SDS011;3534;49.960;8.018;2024-03-08T03:50:03;22.70;;;13.87;;
6987;SDS011;3534;49.960;8.018;2024-03-08T03:52:30;22.13;;;13.10;;
6987;SDS011;3534;49.960;8.018;2024-03-08T03:54:57;21.80;;;13.30;;
6987;SDS011;3534;49.960;8.018;2024-03-08T03:57:24;20.27;;;13.27;;
6987;SDS011;3534;49.960;8.018;2024-03-08T03:59:51;23.80;;;14.27;;
6987;SDS011;3534;49.960;8.018;2024-03-08T04:02:17;24.70;;;14.17;;
6987;SDS011;3534;49.960;8.018;2024-03-08T04:04:46;21.60;;;14.47;;
6987;SDS011;3534;49.960;8.018;2024-03-08T04:07:13;24.97;;;14.60;;
6987;SDS011;3534;49.960;8.018;2024-03-08T04:09:40;28.60;;;15.37;;
6987;SDS011;3534;49.960;8.018;2024-03-08T04:12:07;22.40;;;14.00;;
6987;SDS011;3534;49.960;8.018;2024-03-08T04:14:34;25.20;;;13.67;;
6987;SDS011;3534;49.960;8.018;2024-03-08T04:17:01;25.23;;;14.40;;
6987;SDS011;3534;49.960;8.018;2024-03-08T04:19:28;24.70;;;13.57;;
6987;SDS011;3534;49.960;8.018;2024-03-08T04:21:56;25.30;;;14.03;;
6987;SDS011;3534;49.960;8.018;2024-03-08T04:24:23;24.87;;;15.30;;
6987;SDS011;3534;49.960;8.018;2024-03-08T04:26:50;24.63;;;15.20;;
6987;SDS011;3534;49.960;8.018;2024-03-08T04:29:17;22.97;;;16.07;;
6987;SDS011;3534;49.960;8.018;2024-03-08T04:31:43;23.53;;;14.00;;
6987;SDS011;3534;49.960;8.018;2024-03-08T04:34:10;23.83;;;14.53;;
6987;SDS011;3534;49.960;8.018;2024-03-08T04:36:37;26.77;;;15.00;;
6987;SDS011;3534;49.960;8.018;2024-03-08T04:39:05;25.47;;;15.20;;
6987;SDS011;3534;49.960;8.018;2024-03-08T04:41:37;24.27;;;13.37;;
6987;SDS011;3534;49.960;8.018;2024-03-08T04:44:04;26.97;;;13.87;;
6987;SDS011;3534;49.960;8.018;2024-03-08T04:46:30;24.10;;;13.27;;
6987;SDS011;3534;49.960;8.018;2024-03-08T04:48:57;24.73;;;14.33;;
6987;SDS011;3534;49.960;8.018;2024-03-08T04:51:24;22.67;;;13.30;;
6987;SDS011;3534;49.960;8.018;2024-03-08T04:53:51;24.90;;;14.63;;
6987;SDS011;3534;49.960;8.018;2024-03-08T04:56:19;24.80;;;14.63;;
6987;SDS011;3534;49.960;8.018;2024-03-08T04:58:46;31.43;;;14.00;;
6987;SDS011;3534;49.960;8.018;2024-03-08T05:01:13;30.30;;;15.13;;
6987;SDS011;3534;49.960;8.018;2024-03-08T05:03:39;28.30;;;15.70;;
6987;SDS011;3534;49.960;8.018;2024-03-08T05:06:06;29.47;;;16.50;;
6987;SDS011;3534;49.960;8.018;2024-03-08T05:08:33;23.20;;;14.53;;
6987;SDS011;3534;49.960;8.018;2024-03-08T05:11:00;23.67;;;14.47;;
6987;SDS011;3534;49.960;8.018;2024-03-08T05:13:30;26.47;;;15.27;;
6987;SDS011;3534;49.960;8.018;2024-03-08T05:15:57;22.30;;;14.33;;
6987;SDS011;3534;49.960;8.018;2024-03-08T05:18:24;27.70;;;15.90;;
6987;SDS011;3534;49.960;8.018;2024-03-08T05:20:51;27.00;;;13.93;;
6987;SDS011;3534;49.960;8.018;2024-03-08T05:23:18;25.97;;;14.87;;
6987;SDS011;3534;49.960;8.018;2024-03-08T05:25:45;27.40;;;14.90;;
6987;SDS011;3534;49.960;8.018;2024-03-08T05:28:12;23.20;;;13.67;;
6987;SDS011;3534;49.960;8.018;2024-03-08T05:30:40;28.13;;;15.90;;
6987;SDS011;3534;49.960;8.018;2024-03-08T05:33:07;25.73;;;13.70;;
6987;SDS011;3534;49.960;8.018;2024-03-08T05:35:35;23.50;;;14.97;;
6987;SDS011;3534;49.960;8.018;2024-03-08T05:38:02;26.17;;;14.03;;
6987;SDS011;3534;49.960;8.018;2024-03-08T05:40:29;30.10;;;16.20;;
6987;SDS011;3534;49.960;8.018;2024-03-08T05:42:57;28.97;;;16.60;;
6987;SDS011;3534;49.960;8.018;2024-03-08T05:45:24;30.30;;;15.87;;
6987;SDS011;3534;49.960;8.018;2024-03-08T05:47:52;26.27;;;14.77;;
6987;SDS011;3534;49.960;8.018;2024-03-08T05:50:19;23.00;;;13.33;;
6987;SDS011;3534;49.960;8.018;2024-03-08T05:52:45;27.17;;;15.70;;
6987;SDS011;3534;49.960;8.018;2024-03-08T05:55:13;30.70;;;14.67;;
6987;SDS011;3534;49.960;8.018;2024-03-08T05:57:40;29.43;;;16.07;;
6987;SDS011;3534;49.960;8.018;2024-03-08T06:00:07;28.57;;;16.27;;
6987;SDS011;3534;49.960;8.018;2024-03-08T06:02:36;26.27;;;15.70;;
6987;SDS011;3534;49.960;8.018;2024-03-08T06:05:07;29.20;;;17.17;;
6987;SDS011;3534;49.960;8.018;2024-03-08T06:07:35;26.17;;;16.10;;
6987;SDS011;3534;49.960;8.018;2024-03-08T06:10:05;27.73;;;16.40;;
6987;SDS011;3534;49.960;8.018;2024-03-08T06:12:35;33.13;;;15.10;;
6987;SDS011;3534;49.960;8.018;2024-03-08T06:15:05;28.37;;;14.80;;
6987;SDS011;3534;49.960;8.018;2024-03-08T06:17:32;28.37;;;15.50;;
6987;SDS011;3534;49.960;8.018;2024-03-08T06:19:59;23.40;;;14.70;;
6987;SDS011;3534;49.960;8.018;2024-03-08T06:22:27;26.23;;;16.30;;
6987;SDS011;3534;49.960;8.018;2024-03-08T06:24:55;24.37;;;15.17;;
6987;SDS011;3534;49.960;8.018;2024-03-08T06:27:22;30.23;;;16.03;;
6987;SDS011;3534;49.960;8.018;2024-03-08T06:29:49;28.97;;;16.53;;
6987;SDS011;3534;49.960;8.018;2024-03-08T06:32:15;34.07;;;16.37;;
6987;SDS011;3534;49.960;8.018;2024-03-08T06:34:42;29.40;;;17.40;;
6987;SDS011;3534;49.960;8.018;2024-03-08T06:37:08;24.10;;;15.00;;
6987;SDS011;3534;49.960;8.018;2024-03-08T06:39:36;28.37;;;16.43;;
6987;SDS011;3534;49.960;8.018;2024-03-08T06:42:03;31.90;;;16.80;;
6987;SDS011;3534;49.960;8.018;2024-03-08T06:44:31;28.53;;;16.47;;
6987;SDS011;3534;49.960;8.018;2024-03-08T06:46:57;26.83;;;15.67;;
6987;SDS011;3534;49.960;8.018;2024-03-08T06:49:25;27.43;;;16.70;;
6987;SDS011;3534;49.960;8.018;2024-03-08T06:51:52;41.93;;;15.57;;
6987;SDS011;3534;49.960;8.018;2024-03-08T06:54:18;29.90;;;17.50;;
6987;SDS011;3534;49.960;8.018;2024-03-08T06:56:46;34.30;;;17.20;;
6987;SDS011;3534;49.960;8.018;2024-03-08T06:59:13;29.30;;;16.27;;
6987;SDS011;3534;49.960;8.018;2024-03-08T07:01:43;33.10;;;17.63;;
6987;SDS011;3534;49.960;8.018;2024-03-08T07:04:09;32.00;;;18.50;;
6987;SDS011;3534;49.960;8.018;2024-03-08T07:06:36;28.90;;;17.70;;
6987;SDS011;3534;49.960;8.018;2024-03-08T07:09:03;29.40;;;17.10;;
6987;SDS011;3534;49.960;8.018;2024-03-08T07:11:30;32.70;;;16.63;;
6987;SDS011;3534;49.960;8.018;2024-03-08T07:13:58;25.87;;;16.00;;
6987;SDS011;3534;49.960;8.018;2024-03-08T07:16:28;30.07;;;17.13;;
6987;SDS011;3534;49.960;8.018;2024-03-08T07:18:54;29.77;;;17.73;;
6987;SDS011;3534;49.960;8.018;2024-03-08T07:21:23;32.73;;;16.40;;
6987;SDS011;3534;49.960;8.018;2024-03-08T07:23:51;27.37;;;17.13;;
6987;SDS011;3534;49.960;8.018;2024-03-08T07:26:38;36.43;;;18.10;;
6987;SDS011;3534;49.960;8.018;2024-03-08T07:29:06;31.13;;;18.27;;
6987;SDS011;3534;49.960;8.018;2024-03-08T07:31:33;30.73;;;16.30;;
6987;SDS011;3534;49.960;8.018;2024-03-08T07:34:10;29.37;;;16.23;;
6987;SDS011;3534;49.960;8.018;2024-03-08T07:36:37;31.90;;;18.23;;
6987;SDS011;3534;49.960;8.018;2024-03-08T07:39:04;30.37;;;18.07;;
6987;SDS011;3534;49.960;8.018;2024-03-08T07:41:36;31.70;;;17.83;;
6987;SDS011;3534;49.960;8.018;2024-03-08T07:44:06;31.57;;;17.80;;
6987;SDS011;3534;49.960;8.018;2024-03-08T07:46:33;24.80;;;14.87;;
6987;SDS011;3534;49.960;8.018;2024-03-08T07:49:00;26.23;;;16.57;;
6987;SDS011;3534;49.960;8.018;2024-03-08T07:51:26;31.07;;;17.50;;
6987;SDS011;3534;49.960;8.018;2024-03-08T07:53:53;28.13;;;17.00;;
6987;SDS011;3534;49.960;8.018;2024-03-08T07:56:20;32.50;;;17.97;;
6987;SDS011;3534;49.960;8.018;2024-03-08T07:58:46;32.90;;;17.20;;
6987;SDS011;3534;49.960;8.018;2024-03-08T08:01:17;29.07;;;17.80;;
6987;SDS011;3534;49.960;8.018;2024-03-08T08:03:44;28.87;;;17.23;;
6987;SDS011;3534;49.960;8.018;2024-03-08T08:06:10;25.70;;;15.97;;
6987;SDS011;3534;49.960;8.018;2024-03-08T08:08:40;25.97;;;15.97;;
6987;SDS011;3534;49.960;8.018;2024-03-08T08:11:07;30.60;;;16.50;;
6987;SDS011;3534;49.960;8.018;2024-03-08T08:13:36;40.37;;;17.33;;
6987;SDS011;3534;49.960;8.018;2024-03-08T08:16:04;32.10;;;17.10;;
6987;SDS011;3534;49.960;8.018;2024-03-08T08:18:33;31.30;;;17.70;;
6987;SDS011;3534;49.960;8.018;2024-03-08T08:21:01;27.13;;;16.80;;
6987;SDS011;3534;49.960;8.018;2024-03-08T08:23:27;27.30;;;17.10;;
6987;SDS011;3534;49.960;8.018;2024-03-08T08:25:54;28.20;;;17.20;;
6987;SDS011;3534;49.960;8.018;2024-03-08T08:28:21;27.13;;;16.20;;
6987;SDS011;3534;49.960;8.018;2024-03-08T08:30:48;31.90;;;17.00;;
6987;SDS011;3534;49.960;8.018;2024-03-08T08:33:15;29.83;;;17.20;;
6987;SDS011;3534;49.960;8.018;2024-03-08T08:35:43;26.97;;;17.50;;
6987;SDS011;3534;49.960;8.018;2024-03-08T08:38:09;25.13;;;16.67;;
6987;SDS011;3534;49.960;8.018;2024-03-08T08:40:36;29.90;;;18.43;;
6987;SDS011;3534;49.960;8.018;2024-03-08T08:43:03;28.37;;;16.80;;
6987;SDS011;3534;49.960;8.018;2024-03-08T08:45:30;29.30;;;16.10;;
6987;SDS011;3534;49.960;8.018;2024-03-08T08:47:58;29.63;;;16.63;;
6987;SDS011;3534;49.960;8.018;2024-03-08T08:50:25;29.83;;;16.87;;
6987;SDS011;3534;49.960;8.018;2024-03-08T08:52:54;22.93;;;14.70;;
6987;SDS011;3534;49.960;8.018;2024-03-08T08:55:21;36.83;;;17.80;;
6987;SDS011;3534;49.960;8.018;2024-03-08T08:57:50;31.40;;;16.30;;
6987;SDS011;3534;49.960;8.018;2024-03-08T09:00:18;29.40;;;16.30;;
6987;SDS011;3534;49.960;8.018;2024-03-08T09:02:45;25.13;;;15.90;;
6987;SDS011;3534;49.960;8.018;2024-03-08T09:05:13;24.60;;;15.80;;
6987;SDS011;3534;49.960;8.018;2024-03-08T09:07:41;23.63;;;15.60;;
6987;SDS011;3534;49.960;8.018;2024-03-08T09:10:10;27.70;;;16.70;;
6987;SDS011;3534;49.960;8.018;2024-03-08T09:12:39;25.60;;;15.20;;
6987;SDS011;3534;49.960;8.018;2024-03-08T09:15:06;23.60;;;16.17;;
6987;SDS011;3534;49.960;8.018;2024-03-08T09:17:36;24.83;;;14.60;;
6987;SDS011;3534;49.960;8.018;2024-03-08T09:20:05;26.60;;;15.10;;
6987;SDS011;3534;49.960;8.018;2024-03-08T09:22:32;25.10;;;15.30;;
6987;SDS011;3534;49.960;8.018;2024-03-08T09:24:59;27.00;;;15.23;;
6987;SDS011;3534;49.960;8.018;2024-03-08T09:27:27;25.63;;;15.57;;
6987;SDS011;3534;49.960;8.018;2024-03-08T09:29:54;27.63;;;15.57;;
6987;SDS011;3534;49.960;8.018;2024-03-08T09:32:21;28.33;;;16.63;;
6987;SDS011;3534;49.960;8.018;2024-03-08T09:34:48;25.97;;;14.87;;
6987;SDS011;3534;49.960;8.018;2024-03-08T09:37:16;25.03;;;14.83;;
6987;SDS011;3534;49.960;8.018;2024-03-08T09:39:43;25.87;;;15.90;;
6987;SDS011;3534;49.960;8.018;2024-03-08T09:42:10;27.53;;;15.13;;
6987;SDS011;3534;49.960;8.018;2024-03-08T09:44:41;24.40;;;13.90;;
6987;SDS011;3534;49.960;8.018;2024-03-08T09:47:11;22.37;;;14.63;;
6987;SDS011;3534;49.960;8.018;2024-03-08T09:49:40;23.37;;;14.60;;
6987;SDS011;3534;49.960;8.018;2024-03-08T09:52:07;23.97;;;15.20;;
6987;SDS011;3534;49.960;8.018;2024-03-08T09:54:35;23.20;;;14.00;;
6987;SDS011;3534;49.960;8.018;2024-03-08T09:57:02;23.00;;;14.30;;
6987;SDS011;3534;49.960;8.018;2024-03-08T09:59:30;25.97;;;14.93;;
6987;SDS011;3534;49.960;8.018;2024-03-08T10:02:15;21.20;;;14.33;;
6987;SDS011;3534;49.960;8.018;2024-03-08T10:04:43;20.10;;;13.50;;
6987;SDS011;3534;49.960;8.018;2024-03-08T10:07:12;21.43;;;13.00;;
6987;SDS011;3534;49.960;8.018;2024-03-08T10:09:39;26.20;;;15.70;;
6987;SDS011;3534;49.960;8.018;2024-03-08T10:12:07;24.70;;;15.40;;
6987;SDS011;3534;49.960;8.018;2024-03-08T10:14:38;25.10;;;14.27;;
6987;SDS011;3534;49.960;8.018;2024-03-08T10:17:06;27.03;;;15.60;;
6987;SDS011;3534;49.960;8.018;2024-03-08T10:19:34;20.30;;;13.57;;
6987;SDS011;3534;49.960;8.018;2024-03-08T10:22:00;21.53;;;12.97;;
6987;SDS011;3534;49.960;8.018;2024-03-08T10:24:29;25.67;;;14.10;;
6987;SDS011;3534;49.960;8.018;2024-03-08T10:26:58;19.80;;;12.77;;
6987;SDS011;3534;49.960;8.018;2024-03-08T10:29:25;23.67;;;13.30;;
6987;SDS011;3534;49.960;8.018;2024-03-08T10:31:53;20.93;;;12.80;;
6987;SDS011;3534;49.960;8.018;2024-03-08T10:34:21;29.03;;;13.33;;
6987;SDS011;3534;49.960;8.018;2024-03-08T10:36:49;21.97;;;13.67;;
6987;SDS011;3534;49.960;8.018;2024-03-08T10:39:20;23.07;;;14.57;;
6987;SDS011;3534;49.960;8.018;2024-03-08T10:41:50;21.57;;;14.37;;
6987;SDS011;3534;49.960;8.018;2024-03-08T10:44:23;21.23;;;14.60;;
6987;SDS011;3534;49.960;8.018;2024-03-08T10:47:02;22.83;;;13.20;;
6987;SDS011;3534;49.960;8.018;2024-03-08T10:49:49;21.10;;;13.40;;
6987;SDS011;3534;49.960;8.018;2024-03-08T10:52:21;23.93;;;13.57;;
6987;SDS011;3534;49.960;8.018;2024-03-08T10:54:48;20.47;;;12.10;;
6987;SDS011;3534;49.960;8.018;2024-03-08T10:57:17;20.97;;;12.57;;
6987;SDS011;3534;49.960;8.018;2024-03-08T10:59:45;20.70;;;13.43;;
6987;SDS011;3534;49.960;8.018;2024-03-08T11:02:14;24.70;;;14.93;;
6987;SDS011;3534;49.960;8.018;2024-03-08T11:04:45;21.70;;;12.40;;
6987;SDS011;3534;49.960;8.018;2024-03-08T11:07:12;22.33;;;13.37;;
6987;SDS011;3534;49.960;8.018;2024-03-08T11:09:43;19.27;;;14.00;;
6987;SDS011;3534;49.960;8.018;2024-03-08T11:12:20;19.43;;;12.53;;
6987;SDS011;3534;49.960;8.018;2024-03-08T11:14:50;20.43;;;12.10;;
6987;SDS011;3534;49.960;8.018;2024-03-08T11:17:20;21.77;;;12.30;;
6987;SDS011;3534;49.960;8.018;2024-03-08T11:19:47;16.53;;;11.43;;
6987;SDS011;3534;49.960;8.018;2024-03-08T11:22:20;19.90;;;13.33;;
6987;SDS011;3534;49.960;8.018;2024-03-08T11:24:51;25.10;;;15.03;;
6987;SDS011;3534;49.960;8.018;2024-03-08T11:27:30;33.23;;;13.33;;
6987;SDS011;3534;49.960;8.018;2024-03-08T11:30:01;21.10;;;13.50;;
6987;SDS011;3534;49.960;8.018;2024-03-08T11:32:35;22.07;;;14.03;;
6987;SDS011;3534;49.960;8.018;2024-03-08T11:35:05;25.13;;;15.40;;
6987;SDS011;3534;49.960;8.018;2024-03-08T11:37:34;21.37;;;13.10;;
6987;SDS011;3534;49.960;8.018;2024-03-08T11:40:02;26.70;;;12.93;;
6987;SDS011;3534;49.960;8.018;2024-03-08T11:42:44;22.23;;;14.03;;
6987;SDS011;3534;49.960;8.018;2024-03-08T11:45:12;23.00;;;14.50;;
6987;SDS011;3534;49.960;8.018;2024-03-08T11:47:41;22.63;;;14.53;;
6987;SDS011;3534;49.960;8.018;2024-03-08T11:50:10;21.80;;;13.33;;
6987;SDS011;3534;49.960;8.018;2024-03-08T11:52:37;25.30;;;14.70;;
6987;SDS011;3534;49.960;8.018;2024-03-08T11:55:06;24.57;;;15.33;;
6987;SDS011;3534;49.960;8.018;2024-03-08T11:57:33;24.10;;;14.87;;
6987;SDS011;3534;49.960;8.018;2024-03-08T12:00:00;22.33;;;13.83;;
6987;SDS011;3534;49.960;8.018;2024-03-08T12:02:31;18.77;;;13.00;;
6987;SDS011;3534;49.960;8.018;2024-03-08T12:05:00;22.40;;;14.67;;
6987;SDS011;3534;49.960;8.018;2024-03-08T12:07:28;21.57;;;14.93;;
6987;SDS011;3534;49.960;8.018;2024-03-08T12:10:15;21.47;;;13.83;;
6987;SDS011;3534;49.960;8.018;2024-03-08T12:12:43;19.80;;;14.00;;
6987;SDS011;3534;49.960;8.018;2024-03-08T12:15:11;21.87;;;14.60;;
6987;SDS011;3534;49.960;8.018;2024-03-08T12:17:38;20.77;;;15.33;;
6987;SDS011;3534;49.960;8.018;2024-03-08T12:20:12;25.67;;;14.33;;
6987;SDS011;3534;49.960;8.018;2024-03-08T12:22:41;22.60;;;15.17;;
6987;SDS011;3534;49.960;8.018;2024-03-08T12:25:08;26.13;;;14.47;;
6987;SDS011;3534;49.960;8.018;2024-03-08T12:27:38;20.50;;;14.90;;
6987;SDS011;3534;49.960;8.018;2024-03-08T12:30:18;20.40;;;13.60;;
6987;SDS011;3534;49.960;8.018;2024-03-08T12:32:48;21.10;;;14.40;;
6987;SDS011;3534;49.960;8.018;2024-03-08T12:35:18;24.30;;;15.53;;
6987;SDS011;3534;49.960;8.018;2024-03-08T12:37:47;24.00;;;15.23;;
6987;SDS011;3534;49.960;8.018;2024-03-08T12:40:16;21.37;;;14.30;;
6987;SDS011;3534;49.960;8.018;2024-03-08T12:42:44;21.37;;;14.97;;
6987;SDS011;3534;49.960;8.018;2024-03-08T12:45:13;20.90;;;14.80;;
6987;SDS011;3534;49.960;8.018;2024-03-08T12:47:40;21.00;;;15.23;;
6987;SDS011;3534;49.960;8.018;2024-03-08T12:50:08;22.53;;;15.03;;
6987;SDS011;3534;49.960;8.018;2024-03-08T12:52:35;20.77;;;15.00;;
6987;SDS011;3534;49.960;8.018;2024-03-08T12:55:02;19.27;;;14.00;;
6987;SDS011;3534;49.960;8.018;2024-03-08T12:57:31;19.17;;;14.20;;
6987;SDS011;3534;49.960;8.018;2024-03-08T13:00:01;21.67;;;15.13;;
6987;SDS011;3534;49.960;8.018;2024-03-08T13:02:29;20.47;;;15.33;;
6987;SDS011;3534;49.960;8.018;2024-03-08T13:04:57;21.17;;;15.10;;
6987;SDS011;3534;49.960;8.018;2024-03-08T13:07:24;21.20;;;14.60;;
6987;SDS011;3534;49.960;8.018;2024-03-08T13:09:51;20.20;;;14.30;;
6987;SDS011;3534;49.960;8.018;2024-03-08T13:12:18;22.50;;;15.17;;
6987;SDS011;3534;49.960;8.018;2024-03-08T13:14:46;19.67;;;13.70;;
6987;SDS011;3534;49.960;8.018;2024-03-08T13:17:14;19.17;;;14.10;;
6987;SDS011;3534;49.960;8.018;2024-03-08T13:19:43;20.20;;;14.20;;
6987;SDS011;3534;49.960;8.018;2024-03-08T13:22:09;20.57;;;14.70;;
6987;SDS011;3534;49.960;8.018;2024-03-08T13:24:38;19.50;;;14.13;;
6987;SDS011;3534;49.960;8.018;2024-03-08T13:27:06;19.77;;;14.67;;
6987;SDS011;3534;49.960;8.018;2024-03-08T13:29:44;21.57;;;15.07;;
6987;SDS011;3534;49.960;8.018;2024-03-08T13:32:12;21.67;;;14.73;;
6987;SDS011;3534;49.960;8.018;2024-03-08T13:34:42;19.87;;;14.50;;
6987;SDS011;3534;49.960;8.018;2024-03-08T13:37:10;23.97;;;14.10;;
6987;SDS011;3534;49.960;8.018;2024-03-08T13:39:37;24.03;;;15.17;;
6987;SDS011;3534;49.960;8.018;2024-03-08T13:42:08;21.53;;;15.03;;
6987;SDS011;3534;49.960;8.018;2024-03-08T13:44:38;22.23;;;14.80;;
6987;SDS011;3534;49.960;8.018;2024-03-08T13:47:05;19.53;;;14.30;;
6987;SDS011;3534;49.960;8.018;2024-03-08T13:49:32;18.53;;;14.67;;
6987;SDS011;3534;49.960;8.018;2024-03-08T13:52:00;20.37;;;13.97;;
6987;SDS011;3534;49.960;8.018;2024-03-08T13:54:27;22.93;;;13.87;;
6987;SDS011;3534;49.960;8.018;2024-03-08T13:56:56;20.60;;;14.80;;
6987;SDS011;3534;49.960;8.018;2024-03-08T13:59:23;16.80;;;13.87;;
6987;SDS011;3534;49.960;8.018;2024-03-08T14:01:54;21.60;;;15.60;;
6987;SDS011;3534;49.960;8.018;2024-03-08T14:04:21;19.20;;;14.87;;
6987;SDS011;3534;49.960;8.018;2024-03-08T14:06:49;24.53;;;16.30;;
6987;SDS011;3534;49.960;8.018;2024-03-08T14:09:17;21.63;;;14.47;;
6987;SDS011;3534;49.960;8.018;2024-03-08T14:11:44;18.20;;;13.47;;
6987;SDS011;3534;49.960;8.018;2024-03-08T14:14:11;20.57;;;13.57;;
6987;SDS011;3534;49.960;8.018;2024-03-08T14:16:38;20.27;;;13.87;;
6987;SDS011;3534;49.960;8.018;2024-03-08T14:19:05;18.70;;;14.50;;
6987;SDS011;3534;49.960;8.018;2024-03-08T14:21:32;17.70;;;13.30;;
6987;SDS011;3534;49.960;8.018;2024-03-08T14:23:59;19.07;;;14.17;;
6987;SDS011;3534;49.960;8.018;2024-03-08T14:26:27;18.07;;;13.37;;
6987;SDS011;3534;49.960;8.018;2024-03-08T14:28:54;21.93;;;14.87;;
6987;SDS011;3534;49.960;8.018;2024-03-08T14:31:21;21.43;;;15.00;;
6987;SDS011;3534;49.960;8.018;2024-03-08T14:33:50;19.30;;;13.80;;
6987;SDS011;3534;49.960;8.018;2024-03-08T14:36:17;21.13;;;14.50;;
6987;SDS011;3534;49.960;8.018;2024-03-08T14:38:45;20.70;;;14.17;;
6987;SDS011;3534;49.960;8.018;2024-03-08T14:41:12;22.80;;;15.17;;
6987;SDS011;3534;49.960;8.018;2024-03-08T14:43:41;17.73;;;13.77;;
6987;SDS011;3534;49.960;8.018;2024-03-08T14:46:09;19.83;;;14.30;;
6987;SDS011;3534;49.960;8.018;2024-03-08T14:48:39;21.67;;;15.13;;
6987;SDS011;3534;49.960;8.018;2024-03-08T14:51:06;18.63;;;12.67;;
6987;SDS011;3534;49.960;8.018;2024-03-08T14:53:35;19.90;;;13.80;;